Decoded Metar for SARE (RESISTENCIA in ARGENTINA) (IATA:RES) | Meteo·Mobile Aviation Weather
aviador You're here:

SARE Decoded Metar

RESISTENCIA in ARGENTINA
Report Time2018-08-21 10:00:00
UTC Time2018-08-21 10:37:51
Flight Rules vfr VFR
Wind220° at 03 kt
W.Decomp.*RWY 21: 2.8 kt HW 1.1 kt RCW
W.Rank220° ranks 26
Current wind is below 220° avg. (5.5)
Visibility9999 m
Phenomena:N/A
Clouds:N/A
Expected CloudBase > 400 ft AGL from Temp-Dew spread
CeilingNone
Temp06°C (ISA -9)
Dew Point05°C (93% RH)
AAT3.8°C
QNH1027 hPa
Density Alt-1,230 ft
Elevation171 ft
Report Wrong Elevation
Raw Report
SARE 211000Z 22003KT CAVOK 06/05 Q1027=

Extra information for SARE:More info

Metar Taf Metar & Taf Last 4 Metars F.Rules Stats Wind Profile Meteogram Temp Stats Airport Information Weather charts Add Link Nearby VenuesMetar ALERT Operation Metar Decoded Social comments